sensor_id;sensor_type;location;lat;lon;timestamp;P1;durP1;ratioP1;P2;durP2;ratioP2
40981;SDS011;26708;50.304;19.028;2022-08-01T00:01:55;11.15;;;3.63;;
40981;SDS011;26708;50.304;19.028;2022-08-01T00:04:56;5.90;;;3.50;;
40981;SDS011;26708;50.304;19.028;2022-08-01T00:07:57;7.25;;;3.55;;
40981;SDS011;26708;50.304;19.028;2022-08-01T00:10:58;6.80;;;3.33;;
40981;SDS011;26708;50.304;19.028;2022-08-01T00:13:59;8.75;;;4.00;;
40981;SDS011;26708;50.304;19.028;2022-08-01T00:16:59;4.75;;;3.70;;
40981;SDS011;26708;50.304;19.028;2022-08-01T00:20:00;8.23;;;3.60;;
40981;SDS011;26708;50.304;19.028;2022-08-01T00:23:04;5.22;;;3.72;;
40981;SDS011;26708;50.304;19.028;2022-08-01T00:26:05;5.57;;;3.90;;
40981;SDS011;26708;50.304;19.028;2022-08-01T00:29:06;6.53;;;3.95;;
40981;SDS011;26708;50.304;19.028;2022-08-01T00:32:06;6.40;;;3.72;;
40981;SDS011;26708;50.304;19.028;2022-08-01T00:35:08;8.43;;;3.60;;
40981;SDS011;26708;50.304;19.028;2022-08-01T00:38:10;5.60;;;3.28;;
40981;SDS011;26708;50.304;19.028;2022-08-01T00:41:14;6.10;;;3.65;;
40981;SDS011;26708;50.304;19.028;2022-08-01T00:44:15;7.47;;;3.55;;
40981;SDS011;26708;50.304;19.028;2022-08-01T00:47:15;6.47;;;3.72;;
40981;SDS011;26708;50.304;19.028;2022-08-01T00:50:16;7.72;;;4.22;;
40981;SDS011;26708;50.304;19.028;2022-08-01T00:53:17;5.53;;;4.07;;
40981;SDS011;26708;50.304;19.028;2022-08-01T00:56:19;7.22;;;4.03;;
40981;SDS011;26708;50.304;19.028;2022-08-01T01:02:54;7.03;;;3.53;;
40981;SDS011;26708;50.304;19.028;2022-08-01T01:06:07;7.78;;;4.28;;
40981;SDS011;26708;50.304;19.028;2022-08-01T01:15:50;7.00;;;3.72;;
40981;SDS011;26708;50.304;19.028;2022-08-01T01:19:00;6.70;;;3.67;;
40981;SDS011;26708;50.304;19.028;2022-08-01T01:29:13;8.98;;;4.35;;
40981;SDS011;26708;50.304;19.028;2022-08-01T01:35:31;8.35;;;4.25;;
40981;SDS011;26708;50.304;19.028;2022-08-01T01:38:36;9.30;;;4.57;;
40981;SDS011;26708;50.304;19.028;2022-08-01T01:41:43;7.88;;;3.70;;
40981;SDS011;26708;50.304;19.028;2022-08-01T01:44:45;8.35;;;4.22;;
40981;SDS011;26708;50.304;19.028;2022-08-01T01:47:48;5.60;;;3.70;;
40981;SDS011;26708;50.304;19.028;2022-08-01T01:50:51;7.93;;;4.05;;
40981;SDS011;26708;50.304;19.028;2022-08-01T01:53:53;5.75;;;4.18;;
40981;SDS011;26708;50.304;19.028;2022-08-01T01:56:56;7.70;;;4.15;;
40981;SDS011;26708;50.304;19.028;2022-08-01T01:59:59;5.45;;;4.20;;
40981;SDS011;26708;50.304;19.028;2022-08-01T02:03:02;6.05;;;3.78;;
40981;SDS011;26708;50.304;19.028;2022-08-01T02:06:05;5.73;;;4.07;;
40981;SDS011;26708;50.304;19.028;2022-08-01T02:09:07;6.13;;;3.90;;
40981;SDS011;26708;50.304;19.028;2022-08-01T02:12:12;6.43;;;3.85;;
40981;SDS011;26708;50.304;19.028;2022-08-01T02:15:13;4.88;;;3.40;;
40981;SDS011;26708;50.304;19.028;2022-08-01T02:18:15;6.15;;;3.70;;
40981;SDS011;26708;50.304;19.028;2022-08-01T02:21:20;7.00;;;4.18;;
40981;SDS011;26708;50.304;19.028;2022-08-01T02:24:31;9.32;;;4.28;;
40981;SDS011;26708;50.304;19.028;2022-08-01T02:27:42;9.10;;;3.95;;
40981;SDS011;26708;50.304;19.028;2022-08-01T02:30:47;6.50;;;4.00;;
40981;SDS011;26708;50.304;19.028;2022-08-01T02:34:00;6.82;;;3.83;;
40981;SDS011;26708;50.304;19.028;2022-08-01T02:37:09;6.85;;;4.13;;
40981;SDS011;26708;50.304;19.028;2022-08-01T02:40:10;7.82;;;4.25;;
40981;SDS011;26708;50.304;19.028;2022-08-01T02:43:15;8.90;;;4.53;;
40981;SDS011;26708;50.304;19.028;2022-08-01T02:46:31;6.88;;;4.15;;
40981;SDS011;26708;50.304;19.028;2022-08-01T02:49:38;5.95;;;3.70;;
40981;SDS011;26708;50.304;19.028;2022-08-01T02:52:43;7.60;;;3.97;;
40981;SDS011;26708;50.304;19.028;2022-08-01T02:55:48;10.68;;;4.35;;
40981;SDS011;26708;50.304;19.028;2022-08-01T02:58:51;6.70;;;3.85;;
40981;SDS011;26708;50.304;19.028;2022-08-01T03:01:53;9.63;;;4.53;;
40981;SDS011;26708;50.304;19.028;2022-08-01T03:04:56;6.75;;;4.35;;
40981;SDS011;26708;50.304;19.028;2022-08-01T03:07:59;7.00;;;4.00;;
40981;SDS011;26708;50.304;19.028;2022-08-01T03:11:00;5.80;;;4.03;;
40981;SDS011;26708;50.304;19.028;2022-08-01T03:14:05;8.57;;;3.95;;
40981;SDS011;26708;50.304;19.028;2022-08-01T03:17:08;10.33;;;4.07;;
40981;SDS011;26708;50.304;19.028;2022-08-01T03:20:12;6.30;;;3.90;;
40981;SDS011;26708;50.304;19.028;2022-08-01T03:23:15;7.85;;;4.63;;
40981;SDS011;26708;50.304;19.028;2022-08-01T03:26:18;6.07;;;4.07;;
40981;SDS011;26708;50.304;19.028;2022-08-01T03:29:21;7.50;;;4.32;;
40981;SDS011;26708;50.304;19.028;2022-08-01T03:35:28;7.10;;;4.53;;
40981;SDS011;26708;50.304;19.028;2022-08-01T03:38:33;7.45;;;4.75;;
40981;SDS011;26708;50.304;19.028;2022-08-01T03:41:40;6.75;;;4.57;;
40981;SDS011;26708;50.304;19.028;2022-08-01T03:44:48;9.38;;;5.07;;
40981;SDS011;26708;50.304;19.028;2022-08-01T03:47:56;9.00;;;4.80;;
40981;SDS011;26708;50.304;19.028;2022-08-01T03:51:02;11.65;;;5.00;;
40981;SDS011;26708;50.304;19.028;2022-08-01T03:54:04;15.00;;;6.78;;
40981;SDS011;26708;50.304;19.028;2022-08-01T03:57:07;16.88;;;4.40;;
40981;SDS011;26708;50.304;19.028;2022-08-01T04:00:10;8.48;;;4.97;;
40981;SDS011;26708;50.304;19.028;2022-08-01T04:03:14;9.60;;;4.27;;
40981;SDS011;26708;50.304;19.028;2022-08-01T04:06:15;8.55;;;5.30;;
40981;SDS011;26708;50.304;19.028;2022-08-01T04:09:17;13.40;;;5.38;;
40981;SDS011;26708;50.304;19.028;2022-08-01T04:12:18;9.25;;;4.55;;
40981;SDS011;26708;50.304;19.028;2022-08-01T04:15:19;6.88;;;4.40;;
40981;SDS011;26708;50.304;19.028;2022-08-01T04:18:20;9.52;;;4.65;;
40981;SDS011;26708;50.304;19.028;2022-08-01T04:21:25;12.32;;;5.90;;
40981;SDS011;26708;50.304;19.028;2022-08-01T04:24:29;8.82;;;4.47;;
40981;SDS011;26708;50.304;19.028;2022-08-01T04:27:34;15.23;;;6.18;;
40981;SDS011;26708;50.304;19.028;2022-08-01T04:30:37;15.57;;;5.75;;
40981;SDS011;26708;50.304;19.028;2022-08-01T04:33:40;22.67;;;8.85;;
40981;SDS011;26708;50.304;19.028;2022-08-01T04:36:45;10.75;;;5.25;;
40981;SDS011;26708;50.304;19.028;2022-08-01T04:39:47;7.75;;;4.15;;
40981;SDS011;26708;50.304;19.028;2022-08-01T04:42:49;10.00;;;4.25;;
40981;SDS011;26708;50.304;19.028;2022-08-01T04:45:51;5.45;;;4.10;;
40981;SDS011;26708;50.304;19.028;2022-08-01T04:48:53;6.50;;;3.85;;
40981;SDS011;26708;50.304;19.028;2022-08-01T04:51:55;4.68;;;3.00;;
40981;SDS011;26708;50.304;19.028;2022-08-01T04:54:58;3.72;;;2.95;;
40981;SDS011;26708;50.304;19.028;2022-08-01T04:57:58;7.53;;;3.20;;
40981;SDS011;26708;50.304;19.028;2022-08-01T05:00:59;4.68;;;3.22;;
40981;SDS011;26708;50.304;19.028;2022-08-01T05:04:00;6.88;;;3.30;;
40981;SDS011;26708;50.304;19.028;2022-08-01T05:07:01;7.28;;;3.28;;
40981;SDS011;26708;50.304;19.028;2022-08-01T05:10:03;8.75;;;3.90;;
40981;SDS011;26708;50.304;19.028;2022-08-01T05:13:04;7.45;;;4.22;;
40981;SDS011;26708;50.304;19.028;2022-08-01T05:16:06;8.25;;;4.72;;
40981;SDS011;26708;50.304;19.028;2022-08-01T05:19:07;11.60;;;4.75;;
40981;SDS011;26708;50.304;19.028;2022-08-01T05:22:09;9.15;;;5.60;;
40981;SDS011;26708;50.304;19.028;2022-08-01T05:25:10;7.22;;;5.40;;
40981;SDS011;26708;50.304;19.028;2022-08-01T05:28:11;10.15;;;4.57;;
40981;SDS011;26708;50.304;19.028;2022-08-01T05:31:12;11.02;;;4.22;;
40981;SDS011;26708;50.304;19.028;2022-08-01T05:34:12;15.93;;;6.00;;
40981;SDS011;26708;50.304;19.028;2022-08-01T05:37:14;14.18;;;5.10;;
40981;SDS011;26708;50.304;19.028;2022-08-01T05:40:16;10.95;;;5.53;;
40981;SDS011;26708;50.304;19.028;2022-08-01T05:43:17;12.90;;;5.93;;
40981;SDS011;26708;50.304;19.028;2022-08-01T05:46:18;17.63;;;5.32;;
40981;SDS011;26708;50.304;19.028;2022-08-01T05:49:18;10.80;;;6.30;;
40981;SDS011;26708;50.304;19.028;2022-08-01T05:52:19;11.35;;;5.68;;
40981;SDS011;26708;50.304;19.028;2022-08-01T05:55:20;17.27;;;5.57;;
40981;SDS011;26708;50.304;19.028;2022-08-01T05:58:21;9.45;;;5.35;;
40981;SDS011;26708;50.304;19.028;2022-08-01T06:01:22;7.68;;;4.70;;
40981;SDS011;26708;50.304;19.028;2022-08-01T06:04:23;10.80;;;4.88;;
40981;SDS011;26708;50.304;19.028;2022-08-01T06:07:24;9.65;;;5.72;;
40981;SDS011;26708;50.304;19.028;2022-08-01T06:10:25;12.43;;;5.10;;
40981;SDS011;26708;50.304;19.028;2022-08-01T06:13:26;17.67;;;6.53;;
40981;SDS011;26708;50.304;19.028;2022-08-01T06:16:27;10.80;;;5.18;;
40981;SDS011;26708;50.304;19.028;2022-08-01T06:19:28;8.00;;;4.90;;
40981;SDS011;26708;50.304;19.028;2022-08-01T06:22:29;14.13;;;5.07;;
40981;SDS011;26708;50.304;19.028;2022-08-01T06:25:30;10.93;;;4.88;;
40981;SDS011;26708;50.304;19.028;2022-08-01T06:28:30;13.98;;;4.80;;
40981;SDS011;26708;50.304;19.028;2022-08-01T06:31:31;12.23;;;4.40;;
40981;SDS011;26708;50.304;19.028;2022-08-01T06:34:32;8.02;;;4.00;;
40981;SDS011;26708;50.304;19.028;2022-08-01T06:37:33;6.32;;;3.63;;
40981;SDS011;26708;50.304;19.028;2022-08-01T06:40:34;10.32;;;3.67;;
40981;SDS011;26708;50.304;19.028;2022-08-01T06:43:34;6.80;;;3.05;;
40981;SDS011;26708;50.304;19.028;2022-08-01T06:46:35;5.78;;;3.15;;
40981;SDS011;26708;50.304;19.028;2022-08-01T06:49:36;6.72;;;3.00;;
40981;SDS011;26708;50.304;19.028;2022-08-01T06:52:37;5.75;;;3.25;;
40981;SDS011;26708;50.304;19.028;2022-08-01T06:55:38;4.45;;;2.42;;
40981;SDS011;26708;50.304;19.028;2022-08-01T06:58:39;6.70;;;2.50;;
40981;SDS011;26708;50.304;19.028;2022-08-01T07:01:40;3.75;;;2.03;;
40981;SDS011;26708;50.304;19.028;2022-08-01T07:04:41;5.57;;;2.47;;
40981;SDS011;26708;50.304;19.028;2022-08-01T07:07:42;6.03;;;2.60;;
40981;SDS011;26708;50.304;19.028;2022-08-01T07:10:42;5.30;;;2.47;;
40981;SDS011;26708;50.304;19.028;2022-08-01T07:13:44;8.50;;;2.67;;
40981;SDS011;26708;50.304;19.028;2022-08-01T07:16:46;5.90;;;2.67;;
40981;SDS011;26708;50.304;19.028;2022-08-01T07:19:47;6.68;;;2.40;;
40981;SDS011;26708;50.304;19.028;2022-08-01T07:22:48;4.97;;;3.25;;
40981;SDS011;26708;50.304;19.028;2022-08-01T07:25:49;6.97;;;2.63;;
40981;SDS011;26708;50.304;19.028;2022-08-01T07:28:51;4.78;;;2.30;;
40981;SDS011;26708;50.304;19.028;2022-08-01T07:31:52;6.15;;;2.20;;
40981;SDS011;26708;50.304;19.028;2022-08-01T07:34:53;3.50;;;2.08;;
40981;SDS011;26708;50.304;19.028;2022-08-01T07:37:54;4.90;;;2.08;;
40981;SDS011;26708;50.304;19.028;2022-08-01T07:40:55;7.95;;;2.50;;
40981;SDS011;26708;50.304;19.028;2022-08-01T07:43:55;7.22;;;2.30;;
40981;SDS011;26708;50.304;19.028;2022-08-01T07:46:56;5.10;;;2.50;;
40981;SDS011;26708;50.304;19.028;2022-08-01T07:50:00;7.50;;;2.55;;
40981;SDS011;26708;50.304;19.028;2022-08-01T07:53:02;4.10;;;2.45;;
40981;SDS011;26708;50.304;19.028;2022-08-01T07:56:04;5.65;;;2.25;;
40981;SDS011;26708;50.304;19.028;2022-08-01T07:59:06;5.63;;;2.40;;
40981;SDS011;26708;50.304;19.028;2022-08-01T08:02:07;6.85;;;2.47;;
40981;SDS011;26708;50.304;19.028;2022-08-01T08:05:07;7.18;;;2.78;;
40981;SDS011;26708;50.304;19.028;2022-08-01T08:08:08;8.15;;;2.35;;
40981;SDS011;26708;50.304;19.028;2022-08-01T08:11:10;8.73;;;2.25;;
40981;SDS011;26708;50.304;19.028;2022-08-01T08:14:14;9.32;;;2.58;;
40981;SDS011;26708;50.304;19.028;2022-08-01T08:17:16;8.27;;;2.35;;
40981;SDS011;26708;50.304;19.028;2022-08-01T08:20:17;4.05;;;1.92;;
40981;SDS011;26708;50.304;19.028;2022-08-01T08:23:18;4.78;;;2.00;;
40981;SDS011;26708;50.304;19.028;2022-08-01T08:26:42;9.45;;;2.53;;
40981;SDS011;26708;50.304;19.028;2022-08-01T08:29:44;5.75;;;2.05;;
40981;SDS011;26708;50.304;19.028;2022-08-01T08:32:44;7.15;;;2.47;;
40981;SDS011;26708;50.304;19.028;2022-08-01T08:35:45;5.63;;;2.33;;
40981;SDS011;26708;50.304;19.028;2022-08-01T08:38:46;5.18;;;2.13;;
40981;SDS011;26708;50.304;19.028;2022-08-01T08:41:48;4.72;;;1.92;;
40981;SDS011;26708;50.304;19.028;2022-08-01T08:44:49;3.05;;;1.90;;
40981;SDS011;26708;50.304;19.028;2022-08-01T08:47:50;2.45;;;1.92;;
40981;SDS011;26708;50.304;19.028;2022-08-01T08:50:52;4.78;;;1.77;;
40981;SDS011;26708;50.304;19.028;2022-08-01T08:53:55;3.28;;;1.85;;
40981;SDS011;26708;50.304;19.028;2022-08-01T08:56:57;4.10;;;1.70;;
40981;SDS011;26708;50.304;19.028;2022-08-01T09:00:00;4.13;;;1.63;;
40981;SDS011;26708;50.304;19.028;2022-08-01T09:03:01;5.07;;;2.00;;
40981;SDS011;26708;50.304;19.028;2022-08-01T09:06:03;4.00;;;1.70;;
40981;SDS011;26708;50.304;19.028;2022-08-01T09:09:04;4.50;;;1.90;;
40981;SDS011;26708;50.304;19.028;2022-08-01T09:12:06;3.50;;;1.98;;
40981;SDS011;26708;50.304;19.028;2022-08-01T09:15:08;3.65;;;1.85;;
40981;SDS011;26708;50.304;19.028;2022-08-01T09:21:36;4.70;;;1.70;;
40981;SDS011;26708;50.304;19.028;2022-08-01T09:24:38;3.80;;;1.90;;
40981;SDS011;26708;50.304;19.028;2022-08-01T09:31:14;7.60;;;1.98;;
40981;SDS011;26708;50.304;19.028;2022-08-01T09:34:25;5.73;;;1.97;;
40981;SDS011;26708;50.304;19.028;2022-08-01T09:37:30;4.78;;;1.90;;
40981;SDS011;26708;50.304;19.028;2022-08-01T09:40:45;5.03;;;2.95;;
40981;SDS011;26708;50.304;19.028;2022-08-01T09:43:48;5.97;;;2.17;;
40981;SDS011;26708;50.304;19.028;2022-08-01T09:46:51;4.63;;;2.28;;
40981;SDS011;26708;50.304;19.028;2022-08-01T09:49:55;3.15;;;2.20;;
40981;SDS011;26708;50.304;19.028;2022-08-01T09:52:57;4.18;;;1.90;;
40981;SDS011;26708;50.304;19.028;2022-08-01T09:56:10;7.32;;;2.22;;
40981;SDS011;26708;50.304;19.028;2022-08-01T09:59:12;2.80;;;1.88;;
40981;SDS011;26708;50.304;19.028;2022-08-01T10:02:27;5.57;;;2.10;;
40981;SDS011;26708;50.304;19.028;2022-08-01T10:05:32;5.45;;;2.00;;
40981;SDS011;26708;50.304;19.028;2022-08-01T10:08:46;5.22;;;2.10;;
40981;SDS011;26708;50.304;19.028;2022-08-01T10:11:47;5.00;;;2.20;;
40981;SDS011;26708;50.304;19.028;2022-08-01T10:14:49;4.40;;;2.20;;
40981;SDS011;26708;50.304;19.028;2022-08-01T10:17:55;8.40;;;2.97;;
40981;SDS011;26708;50.304;19.028;2022-08-01T10:20:58;8.20;;;2.25;;
40981;SDS011;26708;50.304;19.028;2022-08-01T10:24:01;5.40;;;2.50;;
40981;SDS011;26708;50.304;19.028;2022-08-01T10:27:06;5.07;;;2.47;;
40981;SDS011;26708;50.304;19.028;2022-08-01T10:30:08;5.85;;;2.80;;
40981;SDS011;26708;50.304;19.028;2022-08-01T10:33:10;7.25;;;3.15;;
40981;SDS011;26708;50.304;19.028;2022-08-01T10:36:11;3.50;;;2.25;;
40981;SDS011;26708;50.304;19.028;2022-08-01T10:39:12;2.53;;;2.10;;
40981;SDS011;26708;50.304;19.028;2022-08-01T10:42:13;4.80;;;2.35;;
40981;SDS011;26708;50.304;19.028;2022-08-01T10:45:14;4.63;;;2.47;;
40981;SDS011;26708;50.304;19.028;2022-08-01T10:48:30;3.10;;;2.53;;
40981;SDS011;26708;50.304;19.028;2022-08-01T10:51:35;4.07;;;2.45;;
40981;SDS011;26708;50.304;19.028;2022-08-01T10:54:40;3.80;;;2.63;;
40981;SDS011;26708;50.304;19.028;2022-08-01T10:57:45;3.85;;;2.78;;
40981;SDS011;26708;50.304;19.028;2022-08-01T11:00:46;5.05;;;3.13;;
40981;SDS011;26708;50.304;19.028;2022-08-01T11:10:19;6.60;;;3.00;;
40981;SDS011;26708;50.304;19.028;2022-08-01T11:20:33;4.03;;;2.90;;
40981;SDS011;26708;50.304;19.028;2022-08-01T11:33:18;7.15;;;3.75;;
40981;SDS011;26708;50.304;19.028;2022-08-01T11:36:39;5.65;;;3.28;;
40981;SDS011;26708;50.304;19.028;2022-08-01T11:39:41;9.70;;;2.70;;
40981;SDS011;26708;50.304;19.028;2022-08-01T11:42:41;6.68;;;3.35;;
40981;SDS011;26708;50.304;19.028;2022-08-01T11:45:49;7.47;;;3.35;;
40981;SDS011;26708;50.304;19.028;2022-08-01T11:49:21;9.30;;;3.00;;
40981;SDS011;26708;50.304;19.028;2022-08-01T11:52:29;5.82;;;2.70;;
40981;SDS011;26708;50.304;19.028;2022-08-01T11:55:36;5.25;;;2.58;;
40981;SDS011;26708;50.304;19.028;2022-08-01T11:58:43;6.38;;;2.70;;
40981;SDS011;26708;50.304;19.028;2022-08-01T12:01:45;7.57;;;2.85;;
40981;SDS011;26708;50.304;19.028;2022-08-01T12:04:50;4.03;;;2.67;;
40981;SDS011;26708;50.304;19.028;2022-08-01T12:08:04;7.53;;;2.90;;
40981;SDS011;26708;50.304;19.028;2022-08-01T12:11:06;6.60;;;2.83;;
40981;SDS011;26708;50.304;19.028;2022-08-01T12:14:07;7.60;;;2.92;;
40981;SDS011;26708;50.304;19.028;2022-08-01T12:17:08;4.85;;;2.60;;
40981;SDS011;26708;50.304;19.028;2022-08-01T12:20:09;7.35;;;2.97;;
40981;SDS011;26708;50.304;19.028;2022-08-01T12:23:13;3.97;;;2.42;;
40981;SDS011;26708;50.304;19.028;2022-08-01T12:26:15;4.45;;;2.53;;
40981;SDS011;26708;50.304;19.028;2022-08-01T12:29:36;4.40;;;2.20;;
40981;SDS011;26708;50.304;19.028;2022-08-01T12:32:41;6.93;;;2.28;;
40981;SDS011;26708;50.304;19.028;2022-08-01T12:35:42;7.00;;;2.95;;
40981;SDS011;26708;50.304;19.028;2022-08-01T12:38:43;3.28;;;2.45;;
40981;SDS011;26708;50.304;19.028;2022-08-01T12:41:44;5.20;;;2.70;;
40981;SDS011;26708;50.304;19.028;2022-08-01T12:44:47;4.20;;;2.38;;
40981;SDS011;26708;50.304;19.028;2022-08-01T12:47:52;5.15;;;2.20;;
40981;SDS011;26708;50.304;19.028;2022-08-01T12:50:54;10.25;;;2.20;;
40981;SDS011;26708;50.304;19.028;2022-08-01T12:53:59;4.15;;;2.65;;
40981;SDS011;26708;50.304;19.028;2022-08-01T12:57:00;5.25;;;2.53;;
40981;SDS011;26708;50.304;19.028;2022-08-01T13:00:13;4.88;;;2.10;;
40981;SDS011;26708;50.304;19.028;2022-08-01T13:03:17;6.20;;;1.65;;
40981;SDS011;26708;50.304;19.028;2022-08-01T13:06:23;2.40;;;2.20;;
40981;SDS011;26708;50.304;19.028;2022-08-01T13:09:33;4.28;;;1.60;;
40981;SDS011;26708;50.304;19.028;2022-08-01T13:12:38;4.35;;;2.10;;
40981;SDS011;26708;50.304;19.028;2022-08-01T13:15:42;5.75;;;2.05;;
40981;SDS011;26708;50.304;19.028;2022-08-01T13:18:53;3.00;;;2.13;;
40981;SDS011;26708;50.304;19.028;2022-08-01T13:21:58;5.93;;;2.05;;
40981;SDS011;26708;50.304;19.028;2022-08-01T13:25:13;4.03;;;2.17;;
40981;SDS011;26708;50.304;19.028;2022-08-01T13:28:20;5.95;;;2.30;;
40981;SDS011;26708;50.304;19.028;2022-08-01T13:31:22;6.55;;;2.40;;
40981;SDS011;26708;50.304;19.028;2022-08-01T13:34:36;4.03;;;2.15;;
40981;SDS011;26708;50.304;19.028;2022-08-01T13:37:43;4.63;;;2.15;;
40981;SDS011;26708;50.304;19.028;2022-08-01T13:40:46;4.57;;;2.30;;
40981;SDS011;26708;50.304;19.028;2022-08-01T13:43:47;5.25;;;2.30;;
40981;SDS011;26708;50.304;19.028;2022-08-01T13:46:48;2.38;;;1.92;;
40981;SDS011;26708;50.304;19.028;2022-08-01T13:49:54;4.35;;;2.33;;
40981;SDS011;26708;50.304;19.028;2022-08-01T13:52:55;4.13;;;2.83;;
40981;SDS011;26708;50.304;19.028;2022-08-01T13:59:01;4.80;;;2.15;;
40981;SDS011;26708;50.304;19.028;2022-08-01T14:02:03;4.95;;;2.30;;
40981;SDS011;26708;50.304;19.028;2022-08-01T14:05:06;4.50;;;2.70;;
40981;SDS011;26708;50.304;19.028;2022-08-01T14:08:14;6.47;;;2.60;;
40981;SDS011;26708;50.304;19.028;2022-08-01T14:11:15;5.00;;;2.83;;
40981;SDS011;26708;50.304;19.028;2022-08-01T14:14:16;8.70;;;3.10;;
40981;SDS011;26708;50.304;19.028;2022-08-01T14:17:20;5.40;;;2.42;;
40981;SDS011;26708;50.304;19.028;2022-08-01T14:20:21;6.13;;;2.80;;
40981;SDS011;26708;50.304;19.028;2022-08-01T14:23:21;4.78;;;2.40;;
40981;SDS011;26708;50.304;19.028;2022-08-01T14:26:22;15.35;;;4.00;;
40981;SDS011;26708;50.304;19.028;2022-08-01T14:29:23;16.52;;;4.50;;
40981;SDS011;26708;50.304;19.028;2022-08-01T14:32:24;9.85;;;4.18;;
40981;SDS011;26708;50.304;19.028;2022-08-01T14:35:25;9.15;;;5.25;;
40981;SDS011;26708;50.304;19.028;2022-08-01T14:38:30;9.93;;;4.20;;
40981;SDS011;26708;50.304;19.028;2022-08-01T14:41:33;6.75;;;2.80;;
40981;SDS011;26708;50.304;19.028;2022-08-01T14:44:36;2.95;;;2.25;;
40981;SDS011;26708;50.304;19.028;2022-08-01T14:47:37;4.15;;;2.83;;
40981;SDS011;26708;50.304;19.028;2022-08-01T14:50:41;5.22;;;1.70;;
40981;SDS011;26708;50.304;19.028;2022-08-01T14:53:41;3.13;;;1.67;;
40981;SDS011;26708;50.304;19.028;2022-08-01T14:56:42;3.10;;;2.10;;
40981;SDS011;26708;50.304;19.028;2022-08-01T14:59:44;4.07;;;2.13;;
40981;SDS011;26708;50.304;19.028;2022-08-01T15:02:44;6.82;;;2.40;;
40981;SDS011;26708;50.304;19.028;2022-08-01T15:05:45;6.78;;;2.63;;
40981;SDS011;26708;50.304;19.028;2022-08-01T15:08:46;5.80;;;3.20;;
40981;SDS011;26708;50.304;19.028;2022-08-01T15:11:48;7.25;;;3.30;;
40981;SDS011;26708;50.304;19.028;2022-08-01T15:14:49;4.88;;;3.00;;
40981;SDS011;26708;50.304;19.028;2022-08-01T15:17:53;6.43;;;3.27;;
40981;SDS011;26708;50.304;19.028;2022-08-01T15:20:54;5.00;;;2.80;;
40981;SDS011;26708;50.304;19.028;2022-08-01T15:23:57;5.25;;;2.97;;
40981;SDS011;26708;50.304;19.028;2022-08-01T15:27:00;4.78;;;2.70;;
40981;SDS011;26708;50.304;19.028;2022-08-01T15:30:01;4.63;;;3.00;;
40981;SDS011;26708;50.304;19.028;2022-08-01T15:33:03;4.32;;;2.95;;
40981;SDS011;26708;50.304;19.028;2022-08-01T15:36:05;5.65;;;2.78;;
40981;SDS011;26708;50.304;19.028;2022-08-01T15:39:06;6.32;;;3.00;;
40981;SDS011;26708;50.304;19.028;2022-08-01T15:42:10;8.27;;;2.97;;
40981;SDS011;26708;50.304;19.028;2022-08-01T15:45:13;3.55;;;2.70;;
40981;SDS011;26708;50.304;19.028;2022-08-01T15:48:18;3.45;;;2.70;;
40981;SDS011;26708;50.304;19.028;2022-08-01T15:51:19;6.97;;;2.70;;
40981;SDS011;26708;50.304;19.028;2022-08-01T15:54:20;5.43;;;2.80;;
40981;SDS011;26708;50.304;19.028;2022-08-01T15:57:21;4.45;;;2.72;;
40981;SDS011;26708;50.304;19.028;2022-08-01T16:00:22;3.10;;;2.60;;
40981;SDS011;26708;50.304;19.028;2022-08-01T16:03:23;6.75;;;2.60;;
40981;SDS011;26708;50.304;19.028;2022-08-01T16:06:24;4.57;;;2.45;;
40981;SDS011;26708;50.304;19.028;2022-08-01T16:09:25;4.90;;;2.42;;
40981;SDS011;26708;50.304;19.028;2022-08-01T16:12:29;4.53;;;2.42;;
40981;SDS011;26708;50.304;19.028;2022-08-01T16:15:30;7.05;;;2.42;;
40981;SDS011;26708;50.304;19.028;2022-08-01T16:18:30;5.28;;;2.65;;
40981;SDS011;26708;50.304;19.028;2022-08-01T16:21:31;5.07;;;2.33;;
40981;SDS011;26708;50.304;19.028;2022-08-01T16:24:32;2.35;;;2.05;;
40981;SDS011;26708;50.304;19.028;2022-08-01T16:27:33;5.30;;;2.95;;
40981;SDS011;26708;50.304;19.028;2022-08-01T16:30:33;3.38;;;2.45;;
40981;SDS011;26708;50.304;19.028;2022-08-01T16:33:34;5.45;;;2.80;;
40981;SDS011;26708;50.304;19.028;2022-08-01T16:36:35;6.75;;;3.08;;
40981;SDS011;26708;50.304;19.028;2022-08-01T16:39:36;3.72;;;2.40;;
40981;SDS011;26708;50.304;19.028;2022-08-01T16:42:37;5.13;;;2.60;;
40981;SDS011;26708;50.304;19.028;2022-08-01T16:45:38;4.70;;;3.83;;
40981;SDS011;26708;50.304;19.028;2022-08-01T16:48:42;7.97;;;2.90;;
40981;SDS011;26708;50.304;19.028;2022-08-01T16:51:43;4.80;;;2.83;;
40981;SDS011;26708;50.304;19.028;2022-08-01T16:54:44;4.13;;;2.30;;
40981;SDS011;26708;50.304;19.028;2022-08-01T16:57:45;4.32;;;2.63;;
40981;SDS011;26708;50.304;19.028;2022-08-01T17:00:46;4.65;;;2.95;;
40981;SDS011;26708;50.304;19.028;2022-08-01T17:03:48;4.03;;;2.92;;
40981;SDS011;26708;50.304;19.028;2022-08-01T17:06:49;7.80;;;4.22;;
40981;SDS011;26708;50.304;19.028;2022-08-01T17:09:51;4.00;;;3.10;;
40981;SDS011;26708;50.304;19.028;2022-08-01T17:12:52;6.43;;;2.88;;
40981;SDS011;26708;50.304;19.028;2022-08-01T17:15:53;6.18;;;2.72;;
40981;SDS011;26708;50.304;19.028;2022-08-01T17:18:53;4.68;;;2.50;;
40981;SDS011;26708;50.304;19.028;2022-08-01T17:21:55;5.05;;;2.53;;
40981;SDS011;26708;50.304;19.028;2022-08-01T17:24:55;9.90;;;2.25;;
40981;SDS011;26708;50.304;19.028;2022-08-01T17:27:56;4.55;;;2.28;;
40981;SDS011;26708;50.304;19.028;2022-08-01T17:30:57;3.50;;;2.40;;
40981;SDS011;26708;50.304;19.028;2022-08-01T17:33:58;5.82;;;2.13;;
40981;SDS011;26708;50.304;19.028;2022-08-01T17:36:59;7.07;;;2.65;;
40981;SDS011;26708;50.304;19.028;2022-08-01T17:40:01;7.78;;;2.40;;
40981;SDS011;26708;50.304;19.028;2022-08-01T17:43:02;3.50;;;2.13;;
40981;SDS011;26708;50.304;19.028;2022-08-01T17:46:02;7.35;;;2.53;;
40981;SDS011;26708;50.304;19.028;2022-08-01T17:49:03;7.53;;;2.67;;
40981;SDS011;26708;50.304;19.028;2022-08-01T17:52:05;3.50;;;2.58;;
40981;SDS011;26708;50.304;19.028;2022-08-01T17:55:06;4.97;;;2.70;;
40981;SDS011;26708;50.304;19.028;2022-08-01T17:58:08;6.35;;;2.72;;
40981;SDS011;26708;50.304;19.028;2022-08-01T18:01:09;6.10;;;2.90;;
40981;SDS011;26708;50.304;19.028;2022-08-01T18:04:10;5.97;;;3.47;;
40981;SDS011;26708;50.304;19.028;2022-08-01T18:07:11;7.38;;;3.40;;
40981;SDS011;26708;50.304;19.028;2022-08-01T18:10:12;5.30;;;2.95;;
40981;SDS011;26708;50.304;19.028;2022-08-01T18:13:13;5.93;;;3.10;;
40981;SDS011;26708;50.304;19.028;2022-08-01T18:16:16;5.53;;;3.38;;
40981;SDS011;26708;50.304;19.028;2022-08-01T18:19:17;8.60;;;3.63;;
40981;SDS011;26708;50.304;19.028;2022-08-01T18:22:20;9.10;;;3.63;;
40981;SDS011;26708;50.304;19.028;2022-08-01T18:25:21;6.68;;;3.17;;
40981;SDS011;26708;50.304;19.028;2022-08-01T18:28:22;4.70;;;3.38;;
40981;SDS011;26708;50.304;19.028;2022-08-01T18:31:23;6.30;;;3.50;;
40981;SDS011;26708;50.304;19.028;2022-08-01T18:34:24;8.23;;;3.50;;
40981;SDS011;26708;50.304;19.028;2022-08-01T18:37:25;6.60;;;3.70;;
40981;SDS011;26708;50.304;19.028;2022-08-01T18:40:25;6.68;;;4.07;;
40981;SDS011;26708;50.304;19.028;2022-08-01T18:43:26;5.15;;;3.40;;
40981;SDS011;26708;50.304;19.028;2022-08-01T18:46:28;7.18;;;3.28;;
40981;SDS011;26708;50.304;19.028;2022-08-01T18:49:29;7.45;;;3.00;;
40981;SDS011;26708;50.304;19.028;2022-08-01T18:52:30;5.93;;;3.35;;
40981;SDS011;26708;50.304;19.028;2022-08-01T18:55:31;4.22;;;3.03;;
40981;SDS011;26708;50.304;19.028;2022-08-01T18:58:32;9.32;;;3.60;;
40981;SDS011;26708;50.304;19.028;2022-08-01T19:01:34;8.38;;;3.65;;